Shadwell, Virginia
Current Conditions -  °F | °C
As of 4:53 PM on Monday 26 Jan 2015 (Local Time) from KCHO Reporting Station
Haze Haze  
Wind Chill: 27°   Ceiling: 500
Heat Index: 34°   Visibility: 2.5mi
Dew Point: 32°   Wind: 8mph
Humidity: 92%   Direction: 50°NE
Pressure: 29.67"   Gusts: NA
Location:  38.0053°N, 78.3345°W
Report Text: KCHO 262153Z 05007KT 2 1/2SM BR OVC005 01/00 A2967 RMK AO2 SLP049 T00110000
Loading
Personal Weather Stations






























Interactive Weather Map New forecast layout! Learn more

10-Day Weather Forecast

Advertisements
Track Severe Weather on mobile